LSMM

Details ICAO LSMM
Name Meiringen
Region Switzerland
Timezone Europe/Zurich (UTC+2.0)
Plans Departing 14
Arriving 15
Stats Elevation 1,879 ft / 573 m (AMSL)
Location 46.742327° 8.108747°
Runways 1
Magnetic Variation 2.286° E
Sunrise 2018-05-21 03:48:02 UTC / 2018-05-21 05:48:02 Local
Sunset 2018-05-21 19:03:07 UTC / 2018-05-21 21:03:07 Local
Advertisement - Login to hide

Runways

ID Width Length Bearing (true) Bearing (mag) Surface Threshold Offset Overrun Length
10 131 ft / 40 m 6,884 ft / 2,098 m 96.60° 94.31° Concrete 150 ft / 46 m 623 ft / 190 m
28 131 ft / 40 m 6,884 ft / 2,098 m 276.62° 274.33° Concrete 150 ft / 46 m 623 ft / 190 m

Map

Weather


0- 5 10 15 20 25 30 35+ Temperature / ° C

Clouds and Precipitation
Forecast for 2018-05-21 18:00 UTC. Updated 5 minutes ago

Ground ~20,000 ft ~40,000 ft Winds

METAR

LSMM 211350Z AUTO 23007KT 210V310 9999NDV FEW130 20/09 Q1013 RMK

TAF

TAF LSMM 210925Z 2110/2216 VRB03KT 9999 FEW120 PROB40 TEMPO 2112/2121 SHRA SCT040TCU PROB30 TEMPO 2113/2119 27012KT TSRA SCT040CB PROB40 2121/2211 CAVOK PROB40 TEMPO 2212/2216 SHRA SCT040TCU PROB30 TEMPO 2213/2216 27012KT 4000 TSRA SCT040CB

Frequencies

Tower 130.15 MHz TWR
Warning: Do not use this data for real-world aviation or navigation. No guarantee of current accuracy is given.